createdAt,value
2019-03-19T00:01:29.978Z,100693.67
2019-03-19T00:03:57.653Z,100697.92
2019-03-19T00:06:44.097Z,100690.73
2019-03-19T00:09:30.486Z,100694.20
2019-03-19T00:12:16.924Z,100694.55
2019-03-19T00:15:03.582Z,100686.86
2019-03-19T00:17:31.393Z,100685.94
2019-03-19T00:19:59.043Z,100685.94
2019-03-19T00:22:26.651Z,100688.13
2019-03-19T00:25:13.081Z,100700.50
2019-03-19T00:27:40.818Z,100700.50
2019-03-19T00:30:27.535Z,100712.00
2019-03-19T00:33:13.951Z,100712.23
2019-03-19T00:36:00.600Z,100706.34
2019-03-19T00:38:47.007Z,100711.05
2019-03-19T00:46:32.536Z,100707.59
2019-03-19T00:49:18.967Z,100717.19
2019-03-19T00:51:46.521Z,100710.96
2019-03-19T00:54:33.225Z,100713.55
2019-03-19T00:57:00.984Z,100713.55
2019-03-19T00:59:47.690Z,100718.59
2019-03-19T01:02:34.409Z,100709.73
2019-03-19T01:05:21.088Z,100703.64
2019-03-19T01:08:07.917Z,100718.86
2019-03-19T01:10:35.576Z,100718.86
2019-03-19T01:13:22.019Z,100723.16
2019-03-19T01:15:50.149Z,100723.16
2019-03-19T01:18:36.562Z,100725.26
2019-03-19T01:24:09.440Z,100721.88
2019-03-19T01:26:55.800Z,100721.88
2019-03-19T01:29:42.210Z,100734.07
2019-03-19T01:32:09.806Z,100735.51
2019-03-19T01:34:56.534Z,100740.86
2019-03-19T01:37:24.153Z,100740.86
2019-03-19T01:40:10.870Z,100741.75
2019-03-19T01:42:38.515Z,100741.75
2019-03-19T01:45:25.117Z,100738.86
2019-03-19T01:47:53.237Z,100738.86
2019-03-19T01:50:20.985Z,100744.12
2019-03-19T01:52:48.763Z,100742.20
2019-03-19T01:55:35.204Z,100753.79
2019-03-19T01:58:21.887Z,100757.06
2019-03-19T02:00:49.634Z,100764.00
2019-03-19T02:03:36.421Z,100756.11
2019-03-19T02:06:05.646Z,100756.11
2019-03-19T02:08:52.072Z,100753.67
2019-03-19T02:11:19.672Z,100753.67
2019-03-19T02:14:06.135Z,100762.54
2019-03-19T02:16:33.757Z,100762.54
2019-03-19T02:19:20.438Z,100757.98
2019-03-19T02:22:06.894Z,100757.98
2019-03-19T02:24:53.598Z,100767.62
2019-03-19T02:30:26.506Z,100783.92
2019-03-19T02:32:54.140Z,100783.92
2019-03-19T02:35:40.826Z,100786.08
2019-03-19T02:38:27.235Z,100788.96
2019-03-19T02:41:13.936Z,100783.59
2019-03-19T02:44:00.381Z,100778.16
2019-03-19T02:46:47.061Z,100783.62
2019-03-19T02:49:33.493Z,100782.59
2019-03-19T02:52:20.238Z,100785.85
2019-03-19T02:57:40.086Z,100789.19
2019-03-19T03:35:50.984Z,100837.23
2019-03-19T03:38:37.611Z,100841.56
2019-03-19T03:41:24.061Z,100841.66
2019-03-19T03:44:10.776Z,100837.66
2019-03-19T03:52:03.618Z,100848.09
2019-03-19T03:57:38.408Z,100870.30
2019-03-19T04:00:45.694Z,100869.49
2019-03-19T04:03:34.209Z,100869.49
2019-03-19T04:06:10.088Z,100864.98
2019-03-19T04:11:42.955Z,100870.63
2019-03-19T04:14:29.606Z,100870.48
2019-03-19T04:19:49.535Z,100871.88
2019-03-19T04:25:22.471Z,100864.76
2019-03-19T04:30:42.094Z,100865.81
2019-03-19T04:38:47.611Z,100880.06
2019-03-19T04:41:15.406Z,100883.65
2019-03-19T04:44:13.781Z,100892.50
2019-03-19T04:46:49.887Z,100893.41
2019-03-19T04:51:51.207Z,100897.39
2019-03-19T04:54:37.583Z,100901.55
2019-03-19T04:57:27.039Z,100899.92
2019-03-19T05:00:12.404Z,100906.53
2019-03-19T05:02:58.798Z,100900.06
2019-03-19T05:08:17.959Z,100902.35
2019-03-19T05:11:04.385Z,100907.70
2019-03-19T05:16:18.814Z,100924.89
2019-03-19T05:21:52.275Z,100919.70
2019-03-19T05:24:38.643Z,100921.50
2019-03-19T05:32:30.813Z,100931.62
2019-03-19T05:35:17.570Z,100931.21
2019-03-19T05:38:04.008Z,100931.21
2019-03-19T05:43:36.925Z,100920.82
2019-03-19T05:48:56.829Z,100928.67
2019-03-19T05:51:43.238Z,100933.39
2019-03-19T05:54:29.710Z,100933.39
2019-03-19T05:57:16.116Z,100936.41
2019-03-19T06:00:02.575Z,100936.41
2019-03-19T06:02:49.060Z,100949.28
2019-03-19T06:05:35.483Z,100949.28
2019-03-19T06:08:03.296Z,100955.70
2019-03-19T06:10:49.746Z,100963.75
2019-03-19T06:13:17.568Z,100963.75
2019-03-19T06:16:04.023Z,100963.21
2019-03-19T06:18:35.285Z,100966.02
2019-03-19T06:21:42.420Z,100969.84
2019-03-19T06:23:49.375Z,100969.84
2019-03-19T06:26:35.781Z,100976.17
2019-03-19T06:31:55.260Z,100973.34
2019-03-19T06:34:41.701Z,100974.14
2019-03-19T06:37:28.109Z,100971.48
2019-03-19T06:39:56.392Z,100981.19
2019-03-19T06:42:24.056Z,100984.06
2019-03-19T06:44:53.748Z,100985.28
2019-03-19T06:47:21.767Z,100992.05
2019-03-19T06:49:50.528Z,101001.14
2019-03-19T06:52:18.604Z,100998.39
2019-03-19T06:54:46.315Z,101000.50
2019-03-19T06:57:14.084Z,100998.19
2019-03-19T06:59:42.063Z,101010.17
2019-03-19T07:02:10.167Z,101010.17
2019-03-19T07:04:37.864Z,101022.35
2019-03-19T07:07:09.418Z,101017.38
2019-03-19T07:09:37.071Z,101017.66
2019-03-19T07:12:05.032Z,101021.34
2019-03-19T07:14:35.384Z,101019.13
2019-03-19T07:17:03.146Z,101032.70
2019-03-19T07:19:31.125Z,101032.70
2019-03-19T07:22:00.547Z,101040.57
2019-03-19T07:24:29.203Z,101040.57
2019-03-19T07:27:04.072Z,101034.97
2019-03-19T07:29:31.797Z,101035.52
2019-03-19T07:32:00.576Z,101032.55
2019-03-19T07:34:28.631Z,101034.92
2019-03-19T07:36:56.373Z,101033.31
2019-03-19T07:39:24.069Z,101034.81
2019-03-19T07:41:52.236Z,101028.36
2019-03-19T07:44:19.878Z,101028.45
2019-03-19T07:46:47.655Z,101028.45
2019-03-19T07:49:18.343Z,101027.53
2019-03-19T07:51:46.087Z,101029.77
2019-03-19T07:54:13.678Z,101033.27
2019-03-19T07:56:44.599Z,101031.40
2019-03-19T07:59:13.659Z,101031.40
2019-03-19T08:01:43.796Z,101034.24
2019-03-19T08:04:12.042Z,101035.47
2019-03-19T08:06:39.752Z,101025.20
2019-03-19T08:09:07.434Z,101025.20
2019-03-19T08:11:37.905Z,101034.82
2019-03-19T08:14:12.668Z,101038.27
2019-03-19T08:16:40.662Z,101033.98
2019-03-19T08:19:19.411Z,101041.36
2019-03-19T08:21:47.323Z,101041.36
2019-03-19T08:24:18.991Z,101048.63
2019-03-19T08:26:46.432Z,101044.21
2019-03-19T08:29:14.149Z,101054.13
2019-03-19T08:31:43.834Z,101051.06
2019-03-19T08:34:12.658Z,101051.06
2019-03-19T08:36:40.308Z,101057.78
2019-03-19T08:39:10.119Z,101057.78
2019-03-19T08:41:38.142Z,101049.90
2019-03-19T08:44:06.304Z,101049.90
2019-03-19T08:46:34.590Z,101049.60
2019-03-19T08:49:02.252Z,101049.60
2019-03-19T08:51:31.524Z,101056.19
2019-03-19T08:53:59.145Z,101056.84
2019-03-19T08:56:27.854Z,101056.84
2019-03-19T08:59:05.547Z,101074.41
2019-03-19T09:01:29.915Z,101074.41
2019-03-19T09:03:59.631Z,101077.70
2019-03-19T09:06:29.298Z,101077.70
2019-03-19T09:08:57.999Z,101077.13
2019-03-19T09:11:28.844Z,101071.02
2019-03-19T09:13:59.576Z,101074.22
2019-03-19T09:16:30.046Z,101059.88
2019-03-19T09:18:57.735Z,101063.96
2019-03-19T09:21:25.976Z,101063.59
2019-03-19T09:23:55.748Z,101063.59
2019-03-19T09:26:24.591Z,101058.72
2019-03-19T09:28:54.126Z,101058.72
2019-03-19T09:31:22.497Z,101052.21
2019-03-19T09:33:54.111Z,101050.31
2019-03-19T09:36:28.501Z,101055.53
2019-03-19T09:38:57.067Z,101053.98
2019-03-19T09:41:25.070Z,101053.98
2019-03-19T09:43:53.614Z,101060.34
2019-03-19T09:46:26.069Z,101060.34
2019-03-19T09:48:53.875Z,101070.96
2019-03-19T09:51:21.563Z,101070.96
2019-03-19T09:53:49.273Z,101081.33
2019-03-19T09:56:19.535Z,101081.33
2019-03-19T09:58:47.236Z,101081.12
2019-03-19T10:01:14.982Z,101083.64
2019-03-19T10:03:43.139Z,101083.64
2019-03-19T10:06:16.880Z,101075.77
2019-03-19T10:08:40.286Z,101078.94
2019-03-19T10:11:08.361Z,101078.94
2019-03-19T10:13:36.078Z,101075.09
2019-03-19T10:16:03.799Z,101058.05
2019-03-19T10:18:34.776Z,101062.11
2019-03-19T10:21:02.467Z,101060.55
2019-03-19T10:23:30.198Z,101070.08
2019-03-19T10:25:59.408Z,101076.83
2019-03-19T10:28:27.128Z,101076.83
2019-03-19T10:30:54.836Z,101072.70
2019-03-19T10:33:23.780Z,101065.59
2019-03-19T10:35:51.959Z,101068.52
2019-03-19T10:38:19.631Z,101076.28
2019-03-19T10:40:47.367Z,101062.39
2019-03-19T10:43:15.046Z,101062.39
2019-03-19T10:45:46.648Z,101062.03
2019-03-19T10:48:15.593Z,101062.03
2019-03-19T10:50:43.267Z,101062.06
2019-03-19T10:53:11.393Z,101071.88
2019-03-19T10:55:42.549Z,101071.88
2019-03-19T10:58:11.447Z,101083.78
2019-03-19T11:00:39.565Z,101092.27
2019-03-19T11:03:07.312Z,101092.27
2019-03-19T11:05:35.352Z,101090.57
2019-03-19T11:08:03.410Z,101092.30
2019-03-19T11:10:34.174Z,101092.30
2019-03-19T11:13:01.879Z,101087.25
2019-03-19T11:15:32.322Z,101083.33
2019-03-19T11:18:00.068Z,101077.59
2019-03-19T11:20:27.775Z,101077.59
2019-03-19T11:22:55.969Z,101086.02
2019-03-19T11:25:23.639Z,101070.47
2019-03-19T11:27:51.335Z,101070.47
2019-03-19T11:30:22.525Z,101071.58
2019-03-19T11:32:50.232Z,101072.91
2019-03-19T11:35:17.977Z,101069.05
2019-03-19T11:37:48.759Z,101066.52
2019-03-19T11:40:16.512Z,101079.09
2019-03-19T11:42:44.255Z,101082.84
2019-03-19T11:45:17.982Z,101080.16
2019-03-19T11:47:47.874Z,101096.02
2019-03-19T11:50:15.562Z,101092.72
2019-03-19T11:52:46.177Z,101092.72
2019-03-19T11:55:13.949Z,101074.83
2019-03-19T11:57:43.910Z,101068.56
2019-03-19T12:00:11.921Z,101068.56
2019-03-19T12:02:43.263Z,101065.66
2019-03-19T12:05:12.893Z,101061.19
2019-03-19T12:07:41.064Z,101064.81
2019-03-19T12:10:08.847Z,101064.81
2019-03-19T12:12:36.544Z,101067.03
2019-03-19T12:15:04.726Z,101063.95
2019-03-19T12:17:32.491Z,101063.95
2019-03-19T12:20:00.195Z,101064.03
2019-03-19T12:22:30.919Z,101071.81
2019-03-19T12:25:01.435Z,101071.81
2019-03-19T12:27:32.552Z,101072.09
2019-03-19T12:30:00.342Z,101075.71
2019-03-19T12:32:27.987Z,101079.95
2019-03-19T12:34:56.849Z,101075.41
2019-03-19T12:37:24.580Z,101072.98
2019-03-19T12:39:52.244Z,101071.55
2019-03-19T12:42:20.481Z,101075.41
2019-03-19T12:44:48.139Z,101065.30
2019-03-19T12:47:22.337Z,101058.04
2019-03-19T12:49:50.384Z,101061.07
2019-03-19T12:52:22.494Z,101061.07
2019-03-19T12:54:51.293Z,101065.34
2019-03-19T12:57:19.359Z,101068.09
2019-03-19T12:59:51.099Z,101068.09
2019-03-19T13:02:16.394Z,101081.55
2019-03-19T13:04:44.585Z,101083.29
2019-03-19T13:07:14.852Z,101083.29
2019-03-19T13:09:44.906Z,101092.41
2019-03-19T13:12:12.971Z,101090.09
2019-03-19T13:14:40.944Z,101087.53
2019-03-19T13:17:08.658Z,101091.91
2019-03-19T13:19:36.861Z,101091.91
2019-03-19T13:22:07.118Z,101095.44
2019-03-19T13:24:34.836Z,101092.78
2019-03-19T13:27:04.028Z,101088.91
2019-03-19T13:29:31.752Z,101092.73
2019-03-19T13:32:01.357Z,101100.97
2019-03-19T13:37:03.266Z,101099.58
2019-03-19T13:39:49.676Z,101101.52
2019-03-19T13:45:08.730Z,101099.73
2019-03-19T13:50:30.597Z,101111.00
2019-03-19T13:53:31.006Z,101104.93
2019-03-19T13:56:07.973Z,101102.63
2019-03-19T13:58:37.824Z,101103.20
2019-03-19T14:01:24.292Z,101113.73
2019-03-19T14:03:52.202Z,101120.61
2019-03-19T14:06:41.209Z,101118.03
2019-03-19T14:12:00.797Z,101110.01
2019-03-19T14:14:30.831Z,101110.01
2019-03-19T14:16:58.670Z,101111.95
2019-03-19T14:19:45.077Z,101108.45
2019-03-19T14:25:04.260Z,101105.82
2019-03-19T14:27:50.683Z,101106.73
2019-03-19T14:30:37.168Z,101106.73
2019-03-19T14:33:05.923Z,101108.67
2019-03-19T14:35:54.897Z,101108.67
2019-03-19T14:41:27.787Z,101108.08
2019-03-19T14:46:47.176Z,101107.58
2019-03-19T14:52:08.195Z,101107.11
2019-03-19T14:57:41.098Z,101109.28
2019-03-19T15:03:06.554Z,101099.94
2019-03-19T15:08:41.464Z,101102.15
2019-03-19T15:11:09.707Z,101102.15
2019-03-19T15:13:56.151Z,101097.66
2019-03-19T15:16:42.593Z,101111.33
2019-03-19T15:19:28.982Z,101111.33
2019-03-19T15:22:15.396Z,101104.23
2019-03-19T15:25:01.842Z,101103.03
2019-03-19T15:30:25.834Z,101096.75
2019-03-19T15:33:12.264Z,101092.05
2019-03-19T15:35:58.691Z,101092.05
2019-03-19T15:41:18.442Z,101073.87
2019-03-19T15:43:49.354Z,101083.41
2019-03-19T15:46:15.609Z,101082.45
2019-03-19T15:48:46.356Z,101088.00
2019-03-19T15:51:13.945Z,101088.00
2019-03-19T15:53:42.027Z,101094.57
2019-03-19T15:56:09.698Z,101106.80
2019-03-19T15:58:39.053Z,101106.80
2019-03-19T16:01:21.185Z,101103.58
2019-03-19T16:03:50.958Z,101103.58
2019-03-19T16:06:33.032Z,101106.36
2019-03-19T16:08:48.341Z,101107.39
2019-03-19T16:11:15.958Z,101113.61
2019-03-19T16:13:45.863Z,101121.81
2019-03-19T16:16:13.200Z,101121.81
2019-03-19T16:18:41.092Z,101127.06
2019-03-19T16:21:09.099Z,101130.28
2019-03-19T16:23:36.742Z,101133.97
2019-03-19T16:26:08.594Z,101129.58
2019-03-19T16:28:44.602Z,101126.64
2019-03-19T16:31:13.853Z,101126.64
2019-03-19T16:33:42.404Z,101133.78
2019-03-19T16:36:10.294Z,101136.95
2019-03-19T16:38:39.365Z,101136.38
2019-03-19T16:41:06.984Z,101136.38
2019-03-19T16:43:35.059Z,101134.50
2019-03-19T16:46:02.693Z,101141.91
2019-03-19T16:48:30.283Z,101146.40
2019-03-19T16:50:58.242Z,101146.40
2019-03-19T16:53:25.889Z,101162.16
2019-03-19T16:55:55.772Z,101162.16
2019-03-19T16:58:25.870Z,101147.68
2019-03-19T17:00:53.643Z,101147.68
2019-03-19T17:03:21.342Z,101155.44
2019-03-19T17:05:50.310Z,101169.83
2019-03-19T17:08:21.046Z,101169.83
2019-03-19T17:10:48.681Z,101181.38
2019-03-19T17:13:19.508Z,101181.38
2019-03-19T17:15:48.485Z,101180.42
2019-03-19T17:18:19.170Z,101183.86
2019-03-19T17:20:48.920Z,101183.86
2019-03-19T17:23:16.571Z,101187.27
2019-03-19T17:25:44.205Z,101187.27
2019-03-19T17:28:21.914Z,101190.38
2019-03-19T17:30:44.038Z,101195.05
2019-03-19T17:33:11.709Z,101195.05
2019-03-19T17:35:39.935Z,101203.66
2019-03-19T17:38:14.079Z,101203.66
2019-03-19T17:40:41.710Z,101204.03
2019-03-19T17:43:08.374Z,101204.03
2019-03-19T17:45:36.961Z,101210.37
2019-03-19T17:48:15.723Z,101210.37
2019-03-19T17:50:37.137Z,101211.06
2019-03-19T17:53:07.150Z,101219.65
2019-03-19T17:55:35.186Z,101223.73
2019-03-19T17:58:04.846Z,101223.73
2019-03-19T18:00:35.205Z,101221.14
2019-03-19T18:03:03.256Z,101225.88
2019-03-19T18:05:33.661Z,101225.88
2019-03-19T18:08:01.386Z,101237.20
2019-03-19T18:10:29.265Z,101235.69
2019-03-19T18:12:59.194Z,101242.70
2019-03-19T18:15:44.681Z,101249.45
2019-03-19T18:18:21.249Z,101249.45
2019-03-19T18:20:53.055Z,101247.48
2019-03-19T18:23:20.449Z,101247.48
2019-03-19T18:25:51.056Z,101246.44
2019-03-19T18:28:18.760Z,101243.84
2019-03-19T18:30:49.287Z,101243.39
2019-03-19T18:33:17.249Z,101243.39
2019-03-19T18:35:44.923Z,101246.98
2019-03-19T18:38:12.545Z,101246.98
2019-03-19T18:40:40.630Z,101249.51
2019-03-19T18:43:09.883Z,101253.75
2019-03-19T18:45:37.601Z,101253.75
2019-03-19T18:48:08.528Z,101254.02
2019-03-19T18:50:36.189Z,101252.27
2019-03-19T18:53:03.820Z,101257.25
2019-03-19T18:55:31.821Z,101257.25
2019-03-19T18:58:01.365Z,101259.44
2019-03-19T19:00:29.189Z,101259.44
2019-03-19T19:03:01.173Z,101268.22
2019-03-19T19:05:34.448Z,101268.22
2019-03-19T19:08:03.886Z,101267.34
2019-03-19T19:10:31.498Z,101273.47
2019-03-19T19:12:59.283Z,101276.44
2019-03-19T19:15:28.499Z,101283.19
2019-03-19T19:17:56.080Z,101283.19
2019-03-19T19:20:25.865Z,101287.00
2019-03-19T19:22:53.919Z,101293.02
2019-03-19T19:25:24.174Z,101297.56
2019-03-19T19:27:54.878Z,101311.31
2019-03-19T19:30:22.883Z,101313.08
2019-03-19T19:33:01.578Z,101313.08
2019-03-19T19:35:22.286Z,101324.92
2019-03-19T19:37:54.766Z,101324.92
2019-03-19T19:40:22.805Z,101328.41
2019-03-19T19:42:50.451Z,101332.05
2019-03-19T19:45:18.421Z,101333.39
2019-03-19T19:47:46.350Z,101335.11
2019-03-19T19:50:15.018Z,101335.11
2019-03-19T19:52:42.991Z,101340.07
2019-03-19T19:55:10.644Z,101340.07
2019-03-19T19:57:40.198Z,101337.33
2019-03-19T20:00:08.299Z,101343.51
2019-03-19T20:02:40.948Z,101345.09
2019-03-19T20:05:08.597Z,101345.09
2019-03-19T20:07:38.558Z,101352.86
2019-03-19T20:10:06.178Z,101355.48
2019-03-19T20:12:33.829Z,101352.22
2019-03-19T20:15:22.680Z,101352.22
2019-03-19T20:20:43.571Z,101357.11
2019-03-19T20:23:11.171Z,101357.11
2019-03-19T20:25:57.640Z,101363.20
2019-03-19T20:28:25.281Z,101366.69
2019-03-19T20:30:57.072Z,101369.28
2019-03-19T20:33:25.291Z,101381.80
2019-03-19T20:35:55.724Z,101385.86
2019-03-19T20:38:39.821Z,101385.72
2019-03-19T20:41:07.375Z,101385.72
2019-03-19T20:43:35.401Z,101398.88
2019-03-19T20:46:05.052Z,101394.59
2019-03-19T20:48:32.390Z,101394.73
2019-03-19T20:51:04.072Z,101392.61
2019-03-19T20:53:33.101Z,101392.61
2019-03-19T20:56:06.822Z,101393.97
2019-03-19T20:58:43.670Z,101397.52
2019-03-19T21:01:08.933Z,101392.03
2019-03-19T21:03:36.549Z,101401.95
2019-03-19T21:06:22.949Z,101404.86
2019-03-19T21:08:52.903Z,101404.86
2019-03-19T21:11:39.269Z,101403.02
2019-03-19T21:14:25.716Z,101408.45
2019-03-19T21:17:12.110Z,101408.45
2019-03-19T21:19:58.577Z,101429.83
2019-03-19T21:22:45.039Z,101431.19
2019-03-19T21:28:16.446Z,101430.78
2019-03-19T21:33:38.884Z,101430.44
2019-03-19T21:36:25.253Z,101435.20
2019-03-19T21:39:34.623Z,101438.25
2019-03-19T21:41:41.351Z,101438.25
2019-03-19T21:44:27.816Z,101444.06
2019-03-19T21:46:56.054Z,101441.52
2019-03-19T21:49:45.026Z,101441.52
2019-03-19T21:52:11.942Z,101442.06
2019-03-19T21:54:58.324Z,101446.62
2019-03-19T21:57:44.787Z,101442.39
2019-03-19T22:00:31.162Z,101447.41
2019-03-19T22:05:53.060Z,101447.02
2019-03-19T22:08:41.396Z,101437.55
2019-03-19T22:11:27.927Z,101438.98
2019-03-19T22:14:14.713Z,101441.24
2019-03-19T22:17:01.185Z,101441.27
2019-03-19T22:22:23.608Z,101442.72
2019-03-19T22:25:09.984Z,101441.89
2019-03-19T22:27:56.461Z,101441.89
2019-03-19T22:30:24.176Z,101444.63
2019-03-19T22:33:10.631Z,101444.77
2019-03-19T22:38:31.354Z,101449.48
2019-03-19T22:41:17.765Z,101440.71
2019-03-19T22:44:04.545Z,101444.57
2019-03-19T22:49:37.447Z,101452.95
2019-03-19T22:55:10.346Z,101455.83
2019-03-19T22:57:38.079Z,101455.83
2019-03-19T23:00:06.117Z,101451.47
2019-03-19T23:02:33.926Z,101453.22
2019-03-19T23:05:20.388Z,101446.27
2019-03-19T23:07:48.288Z,101450.30
2019-03-19T23:10:16.157Z,101453.42
2019-03-19T23:12:44.267Z,101465.28
2019-03-19T23:15:12.011Z,101458.39
2019-03-19T23:17:40.060Z,101458.39
2019-03-19T23:20:26.517Z,101469.34
2019-03-19T23:22:57.034Z,101473.78
2019-03-19T23:28:16.271Z,101473.02
2019-03-19T23:31:02.971Z,101473.94
2019-03-19T23:33:49.418Z,101474.88
2019-03-19T23:36:37.313Z,101464.44
2019-03-19T23:39:05.179Z,101464.44
2019-03-19T23:41:53.614Z,101456.28
2019-03-19T23:47:13.264Z,101449.84
2019-03-19T23:52:16.231Z,101456.08
2019-03-19T23:55:02.982Z,101456.55
2019-03-19T23:57:49.441Z,101457.94
